sensor_id;sensor_type;location;lat;lon;timestamp;P1;durP1;ratioP1;P2;durP2;ratioP2
11328;SDS011;5719;42.714;23.732;2024-01-30T00:01:02;5.10;;;3.70;;
11328;SDS011;5719;42.714;23.732;2024-01-30T00:03:29;6.40;;;3.80;;
11328;SDS011;5719;42.714;23.732;2024-01-30T00:05:56;7.55;;;4.03;;
11328;SDS011;5719;42.714;23.732;2024-01-30T00:08:28;6.63;;;3.92;;
11328;SDS011;5719;42.714;23.732;2024-01-30T00:10:55;5.10;;;2.95;;
11328;SDS011;5719;42.714;23.732;2024-01-30T00:13:22;4.90;;;3.60;;
11328;SDS011;5719;42.714;23.732;2024-01-30T00:15:49;4.30;;;3.20;;
11328;SDS011;5719;42.714;23.732;2024-01-30T00:18:15;4.95;;;3.20;;
11328;SDS011;5719;42.714;23.732;2024-01-30T00:20:43;3.72;;;2.67;;
11328;SDS011;5719;42.714;23.732;2024-01-30T00:23:10;5.30;;;3.55;;
11328;SDS011;5719;42.714;23.732;2024-01-30T00:25:38;5.57;;;3.60;;
11328;SDS011;5719;42.714;23.732;2024-01-30T00:28:05;5.03;;;3.03;;
11328;SDS011;5719;42.714;23.732;2024-01-30T00:30:32;4.97;;;3.47;;
11328;SDS011;5719;42.714;23.732;2024-01-30T00:32:58;4.90;;;3.15;;
11328;SDS011;5719;42.714;23.732;2024-01-30T00:35:25;3.10;;;2.58;;
11328;SDS011;5719;42.714;23.732;2024-01-30T00:37:52;3.35;;;2.70;;
11328;SDS011;5719;42.714;23.732;2024-01-30T00:40:19;3.80;;;2.83;;
11328;SDS011;5719;42.714;23.732;2024-01-30T00:42:47;4.22;;;3.08;;
11328;SDS011;5719;42.714;23.732;2024-01-30T00:45:13;5.03;;;3.03;;
11328;SDS011;5719;42.714;23.732;2024-01-30T00:47:40;4.88;;;3.17;;
11328;SDS011;5719;42.714;23.732;2024-01-30T00:50:07;3.53;;;3.00;;
11328;SDS011;5719;42.714;23.732;2024-01-30T00:52:34;5.97;;;3.05;;
11328;SDS011;5719;42.714;23.732;2024-01-30T00:55:01;4.07;;;2.55;;
11328;SDS011;5719;42.714;23.732;2024-01-30T00:57:28;5.85;;;2.70;;
11328;SDS011;5719;42.714;23.732;2024-01-30T00:59:57;4.22;;;2.80;;
11328;SDS011;5719;42.714;23.732;2024-01-30T01:02:23;4.05;;;2.90;;
11328;SDS011;5719;42.714;23.732;2024-01-30T01:04:50;4.82;;;2.80;;
11328;SDS011;5719;42.714;23.732;2024-01-30T01:07:17;3.03;;;2.72;;
11328;SDS011;5719;42.714;23.732;2024-01-30T01:09:44;4.57;;;2.92;;
11328;SDS011;5719;42.714;23.732;2024-01-30T01:12:10;4.00;;;2.72;;
11328;SDS011;5719;42.714;23.732;2024-01-30T01:14:37;2.90;;;2.60;;
11328;SDS011;5719;42.714;23.732;2024-01-30T01:17:05;2.72;;;2.30;;
11328;SDS011;5719;42.714;23.732;2024-01-30T01:19:32;2.58;;;2.38;;
11328;SDS011;5719;42.714;23.732;2024-01-30T01:21:59;3.47;;;2.45;;
11328;SDS011;5719;42.714;23.732;2024-01-30T01:24:25;3.33;;;2.60;;
11328;SDS011;5719;42.714;23.732;2024-01-30T01:26:52;3.95;;;2.88;;
11328;SDS011;5719;42.714;23.732;2024-01-30T01:29:19;4.93;;;2.80;;
11328;SDS011;5719;42.714;23.732;2024-01-30T01:31:53;2.85;;;2.55;;
11328;SDS011;5719;42.714;23.732;2024-01-30T01:34:21;3.88;;;2.50;;
11328;SDS011;5719;42.714;23.732;2024-01-30T01:36:48;3.10;;;2.80;;
11328;SDS011;5719;42.714;23.732;2024-01-30T01:39:15;4.22;;;2.80;;
11328;SDS011;5719;42.714;23.732;2024-01-30T01:41:42;4.03;;;2.53;;
11328;SDS011;5719;42.714;23.732;2024-01-30T01:44:09;2.30;;;2.10;;
11328;SDS011;5719;42.714;23.732;2024-01-30T01:46:36;2.72;;;2.40;;
11328;SDS011;5719;42.714;23.732;2024-01-30T01:49:04;3.15;;;2.25;;
11328;SDS011;5719;42.714;23.732;2024-01-30T01:51:33;3.13;;;2.45;;
11328;SDS011;5719;42.714;23.732;2024-01-30T01:54:02;2.92;;;2.28;;
11328;SDS011;5719;42.714;23.732;2024-01-30T01:56:30;3.53;;;2.40;;
11328;SDS011;5719;42.714;23.732;2024-01-30T01:58:59;3.30;;;2.20;;
11328;SDS011;5719;42.714;23.732;2024-01-30T02:01:30;4.60;;;2.25;;
11328;SDS011;5719;42.714;23.732;2024-01-30T02:03:58;3.35;;;2.55;;
11328;SDS011;5719;42.714;23.732;2024-01-30T02:06:25;3.35;;;2.40;;
11328;SDS011;5719;42.714;23.732;2024-01-30T02:08:54;3.83;;;2.97;;
11328;SDS011;5719;42.714;23.732;2024-01-30T02:11:21;3.28;;;2.30;;
11328;SDS011;5719;42.714;23.732;2024-01-30T02:13:49;2.58;;;2.08;;
11328;SDS011;5719;42.714;23.732;2024-01-30T02:16:16;3.08;;;2.17;;
11328;SDS011;5719;42.714;23.732;2024-01-30T02:18:43;2.75;;;2.40;;
11328;SDS011;5719;42.714;23.732;2024-01-30T02:21:13;3.33;;;2.30;;
11328;SDS011;5719;42.714;23.732;2024-01-30T02:23:41;3.65;;;2.25;;
11328;SDS011;5719;42.714;23.732;2024-01-30T02:26:09;2.92;;;1.95;;
11328;SDS011;5719;42.714;23.732;2024-01-30T02:28:37;2.92;;;2.28;;
11328;SDS011;5719;42.714;23.732;2024-01-30T02:31:03;2.83;;;2.30;;
11328;SDS011;5719;42.714;23.732;2024-01-30T02:33:30;2.58;;;2.20;;
11328;SDS011;5719;42.714;23.732;2024-01-30T02:35:57;3.65;;;2.20;;
11328;SDS011;5719;42.714;23.732;2024-01-30T02:38:25;2.60;;;2.13;;
11328;SDS011;5719;42.714;23.732;2024-01-30T02:40:53;3.15;;;1.92;;
11328;SDS011;5719;42.714;23.732;2024-01-30T02:43:21;5.30;;;2.42;;
11328;SDS011;5719;42.714;23.732;2024-01-30T02:45:48;2.28;;;2.00;;
11328;SDS011;5719;42.714;23.732;2024-01-30T02:48:15;3.20;;;2.25;;
11328;SDS011;5719;42.714;23.732;2024-01-30T02:50:42;2.15;;;1.95;;
11328;SDS011;5719;42.714;23.732;2024-01-30T02:53:09;2.83;;;2.50;;
11328;SDS011;5719;42.714;23.732;2024-01-30T02:55:37;3.20;;;2.15;;
11328;SDS011;5719;42.714;23.732;2024-01-30T02:58:04;3.53;;;2.22;;
11328;SDS011;5719;42.714;23.732;2024-01-30T03:00:30;4.00;;;2.65;;
11328;SDS011;5719;42.714;23.732;2024-01-30T03:02:57;3.30;;;2.45;;
11328;SDS011;5719;42.714;23.732;2024-01-30T03:05:24;2.88;;;2.40;;
11328;SDS011;5719;42.714;23.732;2024-01-30T03:07:51;2.90;;;2.05;;
11328;SDS011;5719;42.714;23.732;2024-01-30T03:10:18;2.95;;;2.30;;
11328;SDS011;5719;42.714;23.732;2024-01-30T03:12:46;2.72;;;2.35;;
11328;SDS011;5719;42.714;23.732;2024-01-30T03:15:13;4.18;;;2.30;;
11328;SDS011;5719;42.714;23.732;2024-01-30T03:17:40;2.17;;;1.98;;
11328;SDS011;5719;42.714;23.732;2024-01-30T03:20:07;4.03;;;2.70;;
11328;SDS011;5719;42.714;23.732;2024-01-30T03:22:35;3.15;;;2.40;;
11328;SDS011;5719;42.714;23.732;2024-01-30T03:25:02;3.08;;;2.30;;
11328;SDS011;5719;42.714;23.732;2024-01-30T03:27:29;3.45;;;2.45;;
11328;SDS011;5719;42.714;23.732;2024-01-30T03:29:57;2.88;;;2.17;;
11328;SDS011;5719;42.714;23.732;2024-01-30T03:32:24;2.97;;;2.10;;
11328;SDS011;5719;42.714;23.732;2024-01-30T03:34:51;3.97;;;2.70;;
11328;SDS011;5719;42.714;23.732;2024-01-30T03:37:17;3.00;;;2.70;;
11328;SDS011;5719;42.714;23.732;2024-01-30T03:39:44;3.40;;;3.00;;
11328;SDS011;5719;42.714;23.732;2024-01-30T03:42:11;3.40;;;2.78;;
11328;SDS011;5719;42.714;23.732;2024-01-30T03:44:38;3.25;;;2.55;;
11328;SDS011;5719;42.714;23.732;2024-01-30T03:47:06;4.72;;;2.72;;
11328;SDS011;5719;42.714;23.732;2024-01-30T03:49:32;4.05;;;2.70;;
11328;SDS011;5719;42.714;23.732;2024-01-30T03:51:59;3.15;;;2.47;;
11328;SDS011;5719;42.714;23.732;2024-01-30T03:54:26;3.47;;;2.55;;
11328;SDS011;5719;42.714;23.732;2024-01-30T03:56:53;3.88;;;2.58;;
11328;SDS011;5719;42.714;23.732;2024-01-30T03:59:19;3.53;;;2.60;;
11328;SDS011;5719;42.714;23.732;2024-01-30T04:01:49;2.90;;;2.10;;
11328;SDS011;5719;42.714;23.732;2024-01-30T04:04:17;3.33;;;2.50;;
11328;SDS011;5719;42.714;23.732;2024-01-30T04:06:44;2.70;;;2.20;;
11328;SDS011;5719;42.714;23.732;2024-01-30T04:09:10;4.75;;;2.63;;
11328;SDS011;5719;42.714;23.732;2024-01-30T04:11:38;3.88;;;2.50;;
11328;SDS011;5719;42.714;23.732;2024-01-30T04:14:05;3.63;;;2.80;;
11328;SDS011;5719;42.714;23.732;2024-01-30T04:16:31;4.15;;;2.60;;
11328;SDS011;5719;42.714;23.732;2024-01-30T04:18:58;4.60;;;2.50;;
11328;SDS011;5719;42.714;23.732;2024-01-30T04:21:26;3.10;;;2.33;;
11328;SDS011;5719;42.714;23.732;2024-01-30T04:23:53;6.28;;;2.58;;
11328;SDS011;5719;42.714;23.732;2024-01-30T04:26:20;3.38;;;2.55;;
11328;SDS011;5719;42.714;23.732;2024-01-30T04:28:47;3.92;;;2.13;;
11328;SDS011;5719;42.714;23.732;2024-01-30T04:31:13;3.03;;;2.53;;
11328;SDS011;5719;42.714;23.732;2024-01-30T04:33:40;3.85;;;2.45;;
11328;SDS011;5719;42.714;23.732;2024-01-30T04:36:08;3.92;;;2.97;;
11328;SDS011;5719;42.714;23.732;2024-01-30T04:38:37;5.65;;;3.17;;
11328;SDS011;5719;42.714;23.732;2024-01-30T04:41:03;11.35;;;2.70;;
11328;SDS011;5719;42.714;23.732;2024-01-30T04:43:30;3.53;;;2.58;;
11328;SDS011;5719;42.714;23.732;2024-01-30T04:45:57;3.95;;;2.72;;
11328;SDS011;5719;42.714;23.732;2024-01-30T04:48:23;3.40;;;2.47;;
11328;SDS011;5719;42.714;23.732;2024-01-30T04:50:50;3.33;;;2.50;;
11328;SDS011;5719;42.714;23.732;2024-01-30T04:53:17;2.90;;;2.13;;
11328;SDS011;5719;42.714;23.732;2024-01-30T04:55:45;3.05;;;2.22;;
11328;SDS011;5719;42.714;23.732;2024-01-30T04:58:12;3.20;;;2.63;;
11328;SDS011;5719;42.714;23.732;2024-01-30T05:00:39;2.95;;;2.45;;
11328;SDS011;5719;42.714;23.732;2024-01-30T05:03:05;5.05;;;2.70;;
11328;SDS011;5719;42.714;23.732;2024-01-30T05:05:32;3.90;;;2.63;;
11328;SDS011;5719;42.714;23.732;2024-01-30T05:07:59;3.47;;;2.78;;
11328;SDS011;5719;42.714;23.732;2024-01-30T05:10:26;4.50;;;3.00;;
11328;SDS011;5719;42.714;23.732;2024-01-30T05:12:55;4.38;;;2.95;;
11328;SDS011;5719;42.714;23.732;2024-01-30T05:15:21;3.90;;;2.75;;
11328;SDS011;5719;42.714;23.732;2024-01-30T05:17:48;3.65;;;2.65;;
11328;SDS011;5719;42.714;23.732;2024-01-30T05:20:16;3.25;;;2.90;;
11328;SDS011;5719;42.714;23.732;2024-01-30T05:22:43;4.35;;;2.50;;
11328;SDS011;5719;42.714;23.732;2024-01-30T05:25:11;4.32;;;2.67;;
11328;SDS011;5719;42.714;23.732;2024-01-30T05:27:38;3.58;;;2.40;;
11328;SDS011;5719;42.714;23.732;2024-01-30T05:30:07;3.30;;;2.38;;
11328;SDS011;5719;42.714;23.732;2024-01-30T05:32:34;3.20;;;2.50;;
11328;SDS011;5719;42.714;23.732;2024-01-30T05:35:01;3.67;;;2.20;;
11328;SDS011;5719;42.714;23.732;2024-01-30T05:37:28;2.97;;;2.35;;
11328;SDS011;5719;42.714;23.732;2024-01-30T05:39:55;2.55;;;2.28;;
11328;SDS011;5719;42.714;23.732;2024-01-30T05:42:22;2.30;;;1.98;;
11328;SDS011;5719;42.714;23.732;2024-01-30T05:44:49;3.25;;;2.30;;
11328;SDS011;5719;42.714;23.732;2024-01-30T05:47:17;3.70;;;2.03;;
11328;SDS011;5719;42.714;23.732;2024-01-30T05:49:44;3.55;;;2.13;;
11328;SDS011;5719;42.714;23.732;2024-01-30T05:52:11;2.88;;;2.20;;
11328;SDS011;5719;42.714;23.732;2024-01-30T05:54:38;4.00;;;2.65;;
11328;SDS011;5719;42.714;23.732;2024-01-30T05:57:05;3.28;;;2.40;;
11328;SDS011;5719;42.714;23.732;2024-01-30T05:59:32;5.53;;;2.83;;
11328;SDS011;5719;42.714;23.732;2024-01-30T06:01:59;4.35;;;2.38;;
11328;SDS011;5719;42.714;23.732;2024-01-30T06:04:27;4.07;;;2.50;;
11328;SDS011;5719;42.714;23.732;2024-01-30T06:06:54;2.92;;;2.33;;
11328;SDS011;5719;42.714;23.732;2024-01-30T06:09:20;2.88;;;2.58;;
11328;SDS011;5719;42.714;23.732;2024-01-30T06:11:47;3.58;;;2.60;;
11328;SDS011;5719;42.714;23.732;2024-01-30T06:14:14;3.60;;;2.35;;
11328;SDS011;5719;42.714;23.732;2024-01-30T06:16:41;2.38;;;2.17;;
11328;SDS011;5719;42.714;23.732;2024-01-30T06:19:07;3.05;;;2.10;;
11328;SDS011;5719;42.714;23.732;2024-01-30T06:21:35;3.45;;;2.40;;
11328;SDS011;5719;42.714;23.732;2024-01-30T06:24:03;5.20;;;2.47;;
11328;SDS011;5719;42.714;23.732;2024-01-30T06:26:30;2.78;;;2.50;;
11328;SDS011;5719;42.714;23.732;2024-01-30T06:28:57;3.53;;;2.28;;
11328;SDS011;5719;42.714;23.732;2024-01-30T06:31:24;2.85;;;2.33;;
11328;SDS011;5719;42.714;23.732;2024-01-30T06:33:50;2.50;;;2.22;;
11328;SDS011;5719;42.714;23.732;2024-01-30T06:36:17;4.35;;;2.42;;
11328;SDS011;5719;42.714;23.732;2024-01-30T06:38:45;2.60;;;2.40;;
11328;SDS011;5719;42.714;23.732;2024-01-30T06:41:12;2.35;;;1.98;;
11328;SDS011;5719;42.714;23.732;2024-01-30T06:43:39;6.30;;;2.08;;
11328;SDS011;5719;42.714;23.732;2024-01-30T06:46:06;2.15;;;1.80;;
11328;SDS011;5719;42.714;23.732;2024-01-30T06:48:33;2.75;;;2.13;;
11328;SDS011;5719;42.714;23.732;2024-01-30T06:50:59;4.80;;;2.20;;
11328;SDS011;5719;42.714;23.732;2024-01-30T06:53:26;2.95;;;2.15;;
11328;SDS011;5719;42.714;23.732;2024-01-30T06:55:54;3.00;;;2.20;;
11328;SDS011;5719;42.714;23.732;2024-01-30T06:58:21;2.05;;;1.80;;
11328;SDS011;5719;42.714;23.732;2024-01-30T07:00:48;2.00;;;1.80;;
11328;SDS011;5719;42.714;23.732;2024-01-30T07:03:14;2.08;;;1.83;;
11328;SDS011;5719;42.714;23.732;2024-01-30T07:05:41;1.90;;;1.70;;
11328;SDS011;5719;42.714;23.732;2024-01-30T07:08:08;2.35;;;2.00;;
11328;SDS011;5719;42.714;23.732;2024-01-30T07:10:35;2.20;;;1.80;;
11328;SDS011;5719;42.714;23.732;2024-01-30T07:13:03;1.85;;;1.52;;
11328;SDS011;5719;42.714;23.732;2024-01-30T07:15:31;1.70;;;1.60;;
11328;SDS011;5719;42.714;23.732;2024-01-30T07:17:58;2.10;;;1.83;;
11328;SDS011;5719;42.714;23.732;2024-01-30T07:20:25;1.83;;;1.70;;
11328;SDS011;5719;42.714;23.732;2024-01-30T07:22:51;2.20;;;1.95;;
11328;SDS011;5719;42.714;23.732;2024-01-30T07:25:18;1.67;;;1.55;;
11328;SDS011;5719;42.714;23.732;2024-01-30T07:27:46;2.47;;;1.77;;
11328;SDS011;5719;42.714;23.732;2024-01-30T07:30:15;2.80;;;2.13;;
11328;SDS011;5719;42.714;23.732;2024-01-30T07:32:42;2.03;;;1.90;;
11328;SDS011;5719;42.714;23.732;2024-01-30T07:35:09;2.47;;;2.03;;
11328;SDS011;5719;42.714;23.732;2024-01-30T07:37:36;3.13;;;2.13;;
11328;SDS011;5719;42.714;23.732;2024-01-30T07:40:03;2.65;;;2.15;;
11328;SDS011;5719;42.714;23.732;2024-01-30T07:42:31;3.95;;;2.50;;
11328;SDS011;5719;42.714;23.732;2024-01-30T07:44:58;3.50;;;2.42;;
11328;SDS011;5719;42.714;23.732;2024-01-30T07:47:27;3.42;;;2.70;;
11328;SDS011;5719;42.714;23.732;2024-01-30T07:49:53;3.60;;;2.80;;
11328;SDS011;5719;42.714;23.732;2024-01-30T07:52:20;3.50;;;2.80;;
11328;SDS011;5719;42.714;23.732;2024-01-30T07:54:50;4.50;;;2.50;;
11328;SDS011;5719;42.714;23.732;2024-01-30T07:57:17;4.50;;;2.83;;
11328;SDS011;5719;42.714;23.732;2024-01-30T07:59:44;2.75;;;2.50;;
11328;SDS011;5719;42.714;23.732;2024-01-30T08:02:11;5.28;;;2.72;;
11328;SDS011;5719;42.714;23.732;2024-01-30T08:04:40;3.28;;;2.40;;
11328;SDS011;5719;42.714;23.732;2024-01-30T08:07:07;3.95;;;2.78;;
11328;SDS011;5719;42.714;23.732;2024-01-30T08:09:34;3.42;;;2.63;;
11328;SDS011;5719;42.714;23.732;2024-01-30T08:12:00;3.55;;;2.65;;
11328;SDS011;5719;42.714;23.732;2024-01-30T08:14:27;3.55;;;2.60;;
11328;SDS011;5719;42.714;23.732;2024-01-30T08:16:54;3.30;;;2.72;;
11328;SDS011;5719;42.714;23.732;2024-01-30T08:19:21;3.45;;;2.70;;
11328;SDS011;5719;42.714;23.732;2024-01-30T08:21:49;3.80;;;3.03;;
11328;SDS011;5719;42.714;23.732;2024-01-30T08:24:16;2.90;;;2.50;;
11328;SDS011;5719;42.714;23.732;2024-01-30T08:26:42;4.45;;;2.80;;
11328;SDS011;5719;42.714;23.732;2024-01-30T08:29:09;3.70;;;3.00;;
11328;SDS011;5719;42.714;23.732;2024-01-30T08:31:38;4.35;;;3.28;;
11328;SDS011;5719;42.714;23.732;2024-01-30T08:34:04;5.35;;;3.75;;
11328;SDS011;5719;42.714;23.732;2024-01-30T08:36:32;5.00;;;3.45;;
11328;SDS011;5719;42.714;23.732;2024-01-30T08:39:00;4.65;;;3.22;;
11328;SDS011;5719;42.714;23.732;2024-01-30T08:41:26;3.35;;;3.00;;
11328;SDS011;5719;42.714;23.732;2024-01-30T08:43:53;5.07;;;3.70;;
11328;SDS011;5719;42.714;23.732;2024-01-30T08:46:20;3.22;;;2.65;;
11328;SDS011;5719;42.714;23.732;2024-01-30T08:48:47;4.13;;;3.40;;
11328;SDS011;5719;42.714;23.732;2024-01-30T08:51:14;4.75;;;3.40;;
11328;SDS011;5719;42.714;23.732;2024-01-30T08:53:41;3.67;;;3.20;;
11328;SDS011;5719;42.714;23.732;2024-01-30T08:56:09;4.00;;;3.33;;
11328;SDS011;5719;42.714;23.732;2024-01-30T08:58:36;6.07;;;3.15;;
11328;SDS011;5719;42.714;23.732;2024-01-30T09:01:03;6.22;;;2.92;;
11328;SDS011;5719;42.714;23.732;2024-01-30T09:03:30;4.50;;;3.05;;
11328;SDS011;5719;42.714;23.732;2024-01-30T09:05:57;3.53;;;2.80;;
11328;SDS011;5719;42.714;23.732;2024-01-30T09:08:24;3.00;;;2.58;;
11328;SDS011;5719;42.714;23.732;2024-01-30T09:10:51;2.78;;;2.53;;
11328;SDS011;5719;42.714;23.732;2024-01-30T09:13:19;3.60;;;2.55;;
11328;SDS011;5719;42.714;23.732;2024-01-30T09:15:45;3.95;;;3.03;;
11328;SDS011;5719;42.714;23.732;2024-01-30T09:18:12;3.40;;;2.92;;
11328;SDS011;5719;42.714;23.732;2024-01-30T09:20:39;3.80;;;3.03;;
11328;SDS011;5719;42.714;23.732;2024-01-30T09:23:06;4.97;;;3.28;;
11328;SDS011;5719;42.714;23.732;2024-01-30T09:25:33;3.20;;;2.80;;
11328;SDS011;5719;42.714;23.732;2024-01-30T09:28:00;3.63;;;3.10;;
11328;SDS011;5719;42.714;23.732;2024-01-30T09:30:28;4.85;;;2.97;;
11328;SDS011;5719;42.714;23.732;2024-01-30T09:32:55;4.18;;;3.13;;
11328;SDS011;5719;42.714;23.732;2024-01-30T09:35:22;3.65;;;2.97;;
11328;SDS011;5719;42.714;23.732;2024-01-30T09:37:48;3.75;;;2.55;;
11328;SDS011;5719;42.714;23.732;2024-01-30T09:40:16;4.20;;;3.10;;
11328;SDS011;5719;42.714;23.732;2024-01-30T09:42:44;4.43;;;3.42;;
11328;SDS011;5719;42.714;23.732;2024-01-30T09:45:13;4.20;;;3.05;;
11328;SDS011;5719;42.714;23.732;2024-01-30T09:47:42;3.65;;;3.15;;
11328;SDS011;5719;42.714;23.732;2024-01-30T09:50:09;3.95;;;3.25;;
11328;SDS011;5719;42.714;23.732;2024-01-30T09:52:38;3.30;;;2.88;;
11328;SDS011;5719;42.714;23.732;2024-01-30T09:55:06;3.33;;;2.92;;
11328;SDS011;5719;42.714;23.732;2024-01-30T09:57:34;4.10;;;2.80;;
11328;SDS011;5719;42.714;23.732;2024-01-30T10:00:01;3.50;;;2.75;;
11328;SDS011;5719;42.714;23.732;2024-01-30T10:02:28;3.33;;;2.65;;
11328;SDS011;5719;42.714;23.732;2024-01-30T10:04:56;2.63;;;2.30;;
11328;SDS011;5719;42.714;23.732;2024-01-30T10:07:23;2.58;;;2.22;;
11328;SDS011;5719;42.714;23.732;2024-01-30T10:09:49;2.88;;;2.60;;
11328;SDS011;5719;42.714;23.732;2024-01-30T10:12:16;3.22;;;2.67;;
11328;SDS011;5719;42.714;23.732;2024-01-30T10:14:43;2.50;;;2.30;;
11328;SDS011;5719;42.714;23.732;2024-01-30T10:17:11;2.60;;;2.35;;
11328;SDS011;5719;42.714;23.732;2024-01-30T10:19:39;3.70;;;2.35;;
11328;SDS011;5719;42.714;23.732;2024-01-30T10:22:09;2.65;;;2.45;;
11328;SDS011;5719;42.714;23.732;2024-01-30T10:24:36;1.92;;;1.80;;
11328;SDS011;5719;42.714;23.732;2024-01-30T10:27:03;2.30;;;1.90;;
11328;SDS011;5719;42.714;23.732;2024-01-30T10:29:31;2.47;;;2.22;;
11328;SDS011;5719;42.714;23.732;2024-01-30T10:31:58;2.40;;;2.20;;
11328;SDS011;5719;42.714;23.732;2024-01-30T10:34:26;2.63;;;2.38;;
11328;SDS011;5719;42.714;23.732;2024-01-30T10:36:56;2.67;;;2.35;;
11328;SDS011;5719;42.714;23.732;2024-01-30T10:39:29;2.88;;;2.47;;
11328;SDS011;5719;42.714;23.732;2024-01-30T10:41:58;2.63;;;2.42;;
11328;SDS011;5719;42.714;23.732;2024-01-30T10:44:30;3.30;;;2.63;;
11328;SDS011;5719;42.714;23.732;2024-01-30T10:47:06;4.53;;;2.30;;
11328;SDS011;5719;42.714;23.732;2024-01-30T10:49:38;3.15;;;2.60;;
11328;SDS011;5719;42.714;23.732;2024-01-30T10:52:07;2.30;;;2.10;;
11328;SDS011;5719;42.714;23.732;2024-01-30T10:54:36;2.80;;;2.50;;
11328;SDS011;5719;42.714;23.732;2024-01-30T10:57:06;2.65;;;2.45;;
11328;SDS011;5719;42.714;23.732;2024-01-30T10:59:35;3.13;;;2.28;;
11328;SDS011;5719;42.714;23.732;2024-01-30T11:02:02;2.70;;;2.50;;
11328;SDS011;5719;42.714;23.732;2024-01-30T11:04:35;3.47;;;2.97;;
11328;SDS011;5719;42.714;23.732;2024-01-30T11:07:15;4.05;;;2.53;;
11328;SDS011;5719;42.714;23.732;2024-01-30T11:09:49;2.72;;;2.53;;
11328;SDS011;5719;42.714;23.732;2024-01-30T11:12:16;4.63;;;2.60;;
11328;SDS011;5719;42.714;23.732;2024-01-30T11:14:48;2.78;;;2.35;;
11328;SDS011;5719;42.714;23.732;2024-01-30T11:17:14;3.80;;;2.30;;
11328;SDS011;5719;42.714;23.732;2024-01-30T11:19:42;4.00;;;2.80;;
11328;SDS011;5719;42.714;23.732;2024-01-30T11:22:10;3.17;;;2.47;;
11328;SDS011;5719;42.714;23.732;2024-01-30T11:24:39;2.83;;;2.53;;
11328;SDS011;5719;42.714;23.732;2024-01-30T11:27:09;3.55;;;2.65;;
11328;SDS011;5719;42.714;23.732;2024-01-30T11:29:36;3.90;;;2.90;;
11328;SDS011;5719;42.714;23.732;2024-01-30T11:32:02;3.45;;;2.92;;
11328;SDS011;5719;42.714;23.732;2024-01-30T11:34:30;3.88;;;2.85;;
11328;SDS011;5719;42.714;23.732;2024-01-30T11:36:59;3.15;;;2.88;;
11328;SDS011;5719;42.714;23.732;2024-01-30T11:39:30;4.38;;;2.95;;
11328;SDS011;5719;42.714;23.732;2024-01-30T11:41:57;3.60;;;2.35;;
11328;SDS011;5719;42.714;23.732;2024-01-30T11:44:27;6.60;;;3.10;;
11328;SDS011;5719;42.714;23.732;2024-01-30T11:46:54;5.80;;;2.85;;
11328;SDS011;5719;42.714;23.732;2024-01-30T11:49:20;3.53;;;2.85;;
11328;SDS011;5719;42.714;23.732;2024-01-30T11:51:48;2.70;;;2.50;;
11328;SDS011;5719;42.714;23.732;2024-01-30T11:54:15;3.38;;;2.92;;
11328;SDS011;5719;42.714;23.732;2024-01-30T11:56:42;3.92;;;3.10;;
11328;SDS011;5719;42.714;23.732;2024-01-30T11:59:09;4.00;;;2.78;;
11328;SDS011;5719;42.714;23.732;2024-01-30T12:01:37;3.45;;;3.10;;
11328;SDS011;5719;42.714;23.732;2024-01-30T12:04:04;4.18;;;3.22;;
11328;SDS011;5719;42.714;23.732;2024-01-30T12:06:34;4.45;;;3.38;;
11328;SDS011;5719;42.714;23.732;2024-01-30T12:09:01;3.72;;;3.17;;
11328;SDS011;5719;42.714;23.732;2024-01-30T12:11:30;4.00;;;3.15;;
11328;SDS011;5719;42.714;23.732;2024-01-30T12:13:57;4.43;;;3.50;;
11328;SDS011;5719;42.714;23.732;2024-01-30T12:16:24;3.97;;;3.15;;
11328;SDS011;5719;42.714;23.732;2024-01-30T12:19:00;3.90;;;3.45;;
11328;SDS011;5719;42.714;23.732;2024-01-30T12:21:27;6.45;;;3.67;;
11328;SDS011;5719;42.714;23.732;2024-01-30T12:23:55;5.15;;;3.70;;
11328;SDS011;5719;42.714;23.732;2024-01-30T12:26:23;5.60;;;3.97;;
11328;SDS011;5719;42.714;23.732;2024-01-30T12:28:50;4.32;;;3.70;;
11328;SDS011;5719;42.714;23.732;2024-01-30T12:31:25;4.50;;;3.35;;
11328;SDS011;5719;42.714;23.732;2024-01-30T12:33:52;5.60;;;3.88;;
11328;SDS011;5719;42.714;23.732;2024-01-30T12:36:20;6.30;;;4.10;;
11328;SDS011;5719;42.714;23.732;2024-01-30T12:38:47;4.43;;;3.63;;
11328;SDS011;5719;42.714;23.732;2024-01-30T12:41:14;6.35;;;4.25;;
11328;SDS011;5719;42.714;23.732;2024-01-30T12:43:41;6.00;;;3.75;;
11328;SDS011;5719;42.714;23.732;2024-01-30T12:46:08;9.38;;;4.05;;
11328;SDS011;5719;42.714;23.732;2024-01-30T12:48:35;4.75;;;3.67;;
11328;SDS011;5719;42.714;23.732;2024-01-30T12:51:02;5.38;;;3.80;;
11328;SDS011;5719;42.714;23.732;2024-01-30T12:53:32;5.10;;;3.60;;
11328;SDS011;5719;42.714;23.732;2024-01-30T12:55:59;6.22;;;3.80;;
11328;SDS011;5719;42.714;23.732;2024-01-30T12:58:25;6.00;;;4.00;;
11328;SDS011;5719;42.714;23.732;2024-01-30T13:00:52;4.78;;;3.55;;
11328;SDS011;5719;42.714;23.732;2024-01-30T13:03:20;5.13;;;4.15;;
11328;SDS011;5719;42.714;23.732;2024-01-30T13:05:48;5.80;;;3.97;;
11328;SDS011;5719;42.714;23.732;2024-01-30T13:08:15;6.80;;;3.88;;
11328;SDS011;5719;42.714;23.732;2024-01-30T13:10:43;6.97;;;3.80;;
11328;SDS011;5719;42.714;23.732;2024-01-30T13:13:10;7.43;;;4.25;;
11328;SDS011;5719;42.714;23.732;2024-01-30T13:15:37;5.47;;;3.60;;
11328;SDS011;5719;42.714;23.732;2024-01-30T13:18:04;4.60;;;3.80;;
11328;SDS011;5719;42.714;23.732;2024-01-30T13:20:33;5.22;;;3.80;;
11328;SDS011;5719;42.714;23.732;2024-01-30T13:23:00;4.13;;;3.67;;
11328;SDS011;5719;42.714;23.732;2024-01-30T13:25:26;5.70;;;3.88;;
11328;SDS011;5719;42.714;23.732;2024-01-30T13:27:54;7.10;;;3.80;;
11328;SDS011;5719;42.714;23.732;2024-01-30T13:30:21;6.32;;;4.00;;
11328;SDS011;5719;42.714;23.732;2024-01-30T13:32:48;4.32;;;3.70;;
11328;SDS011;5719;42.714;23.732;2024-01-30T13:35:15;5.10;;;3.50;;
11328;SDS011;5719;42.714;23.732;2024-01-30T13:37:42;5.80;;;3.67;;
11328;SDS011;5719;42.714;23.732;2024-01-30T13:40:09;4.75;;;3.50;;
11328;SDS011;5719;42.714;23.732;2024-01-30T13:42:36;5.35;;;3.42;;
11328;SDS011;5719;42.714;23.732;2024-01-30T13:45:05;4.35;;;3.42;;
11328;SDS011;5719;42.714;23.732;2024-01-30T13:47:34;7.10;;;3.30;;
11328;SDS011;5719;42.714;23.732;2024-01-30T13:50:00;4.97;;;3.75;;
11328;SDS011;5719;42.714;23.732;2024-01-30T13:52:28;3.95;;;3.03;;
11328;SDS011;5719;42.714;23.732;2024-01-30T13:54:55;4.25;;;3.50;;
11328;SDS011;5719;42.714;23.732;2024-01-30T13:57:23;6.10;;;3.50;;
11328;SDS011;5719;42.714;23.732;2024-01-30T14:00:01;3.95;;;3.15;;
11328;SDS011;5719;42.714;23.732;2024-01-30T14:02:31;4.18;;;3.05;;
11328;SDS011;5719;42.714;23.732;2024-01-30T14:04:59;7.55;;;3.45;;
11328;SDS011;5719;42.714;23.732;2024-01-30T14:07:26;4.10;;;3.20;;
11328;SDS011;5719;42.714;23.732;2024-01-30T14:09:52;4.75;;;3.13;;
11328;SDS011;5719;42.714;23.732;2024-01-30T14:12:19;5.78;;;3.33;;
11328;SDS011;5719;42.714;23.732;2024-01-30T14:14:47;4.85;;;3.42;;
11328;SDS011;5719;42.714;23.732;2024-01-30T14:17:13;3.97;;;3.17;;
11328;SDS011;5719;42.714;23.732;2024-01-30T14:19:42;4.07;;;3.10;;
11328;SDS011;5719;42.714;23.732;2024-01-30T14:22:08;4.43;;;3.28;;
11328;SDS011;5719;42.714;23.732;2024-01-30T14:24:35;3.25;;;2.90;;
11328;SDS011;5719;42.714;23.732;2024-01-30T14:27:03;4.78;;;2.97;;
11328;SDS011;5719;42.714;23.732;2024-01-30T14:29:30;4.40;;;3.25;;
11328;SDS011;5719;42.714;23.732;2024-01-30T14:31:57;4.30;;;3.30;;
11328;SDS011;5719;42.714;23.732;2024-01-30T14:34:24;5.22;;;2.90;;
11328;SDS011;5719;42.714;23.732;2024-01-30T14:36:52;3.90;;;3.00;;
11328;SDS011;5719;42.714;23.732;2024-01-30T14:39:19;5.20;;;3.25;;
11328;SDS011;5719;42.714;23.732;2024-01-30T14:41:46;4.80;;;3.20;;
11328;SDS011;5719;42.714;23.732;2024-01-30T14:44:12;3.65;;;3.20;;
11328;SDS011;5719;42.714;23.732;2024-01-30T14:46:40;3.78;;;3.03;;
11328;SDS011;5719;42.714;23.732;2024-01-30T14:49:07;5.75;;;3.30;;